createdAt,value
2018-09-18T00:00:08.221Z,57.30
2018-09-18T00:02:36.159Z,57.30
2018-09-18T00:05:04.115Z,57.50
2018-09-18T00:07:32.099Z,57.50
2018-09-18T00:10:00.028Z,57.50
2018-09-18T00:12:28.037Z,57.80
2018-09-18T00:14:55.970Z,57.70
2018-09-18T00:17:23.901Z,57.70
2018-09-18T00:19:51.841Z,57.70
2018-09-18T00:22:19.787Z,57.70
2018-09-18T00:24:47.724Z,57.80
2018-09-18T00:27:15.687Z,57.80
2018-09-18T00:29:43.619Z,57.80
2018-09-18T00:32:11.546Z,57.90
2018-09-18T00:34:39.482Z,57.90
2018-09-18T00:37:07.426Z,58.00
2018-09-18T00:39:35.363Z,58.00
2018-09-18T00:42:03.582Z,58.10
2018-09-18T00:44:31.538Z,58.10
2018-09-18T00:46:59.468Z,58.20
2018-09-18T00:49:28.703Z,58.10
2018-09-18T00:51:56.650Z,58.30
2018-09-18T00:54:24.590Z,58.20
2018-09-18T00:56:52.818Z,58.30
2018-09-18T00:59:20.718Z,58.20
2018-09-18T01:01:49.508Z,58.30
2018-09-18T01:04:17.452Z,58.30
2018-09-18T01:06:45.368Z,58.30
2018-09-18T01:09:13.554Z,58.20
2018-09-18T01:11:41.512Z,58.20
2018-09-18T01:14:09.459Z,58.20
2018-09-18T01:16:37.556Z,58.10
2018-09-18T01:19:05.495Z,58.10
2018-09-18T01:21:33.449Z,58.10
2018-09-18T01:24:01.642Z,58.10
2018-09-18T01:26:29.554Z,58.00
2018-09-18T01:28:57.518Z,57.90
2018-09-18T01:31:25.488Z,57.80
2018-09-18T01:33:53.432Z,57.70
2018-09-18T01:36:21.405Z,57.60
2018-09-18T01:38:49.334Z,57.60
2018-09-18T01:41:17.307Z,57.70
2018-09-18T01:43:48.860Z,57.70
2018-09-18T01:46:16.765Z,58.30
2018-09-18T01:48:44.700Z,57.60
2018-09-18T01:51:12.644Z,57.60
2018-09-18T01:53:40.583Z,57.60
2018-09-18T01:56:08.531Z,57.60
2018-09-18T01:58:40.248Z,57.50
2018-09-18T02:01:08.484Z,58.10
2018-09-18T02:03:36.455Z,57.50
2018-09-18T02:06:04.378Z,57.50
2018-09-18T02:08:32.330Z,57.50
2018-09-18T02:11:00.267Z,57.50
2018-09-18T02:13:28.260Z,57.50
2018-09-18T02:15:56.197Z,57.50
2018-09-18T02:18:24.132Z,57.60
2018-09-18T02:20:52.069Z,57.60
2018-09-18T02:23:20.011Z,57.60
2018-09-18T02:25:47.975Z,57.60
2018-09-18T02:28:15.945Z,57.60
2018-09-18T02:30:43.872Z,57.60
2018-09-18T02:33:11.812Z,57.50
2018-09-18T02:35:39.752Z,57.60
2018-09-18T02:38:07.716Z,57.60
2018-09-18T02:40:35.630Z,57.60
2018-09-18T02:43:03.554Z,57.60
2018-09-18T02:45:31.507Z,57.70
2018-09-18T02:47:59.427Z,57.70
2018-09-18T02:50:27.366Z,57.70
2018-09-18T02:52:55.307Z,57.70
2018-09-18T02:55:23.248Z,57.80
2018-09-18T02:57:51.188Z,58.00
2018-09-18T03:00:19.128Z,58.10
2018-09-18T03:02:47.062Z,58.10
2018-09-18T03:05:14.997Z,58.30
2018-09-18T03:07:43.219Z,58.30
2018-09-18T03:10:11.156Z,58.30
2018-09-18T03:12:39.089Z,58.30
2018-09-18T03:15:10.116Z,58.40
2018-09-18T03:17:38.021Z,58.40
2018-09-18T03:20:06.095Z,58.50
2018-09-18T03:22:34.061Z,58.60
2018-09-18T03:25:01.983Z,58.60
2018-09-18T03:27:29.938Z,58.60
2018-09-18T03:29:57.863Z,58.60
2018-09-18T03:32:25.805Z,58.70
2018-09-18T03:34:53.730Z,58.70
2018-09-18T03:37:21.738Z,58.80
2018-09-18T03:39:49.671Z,58.90
2018-09-18T03:42:17.628Z,58.90
2018-09-18T03:44:45.575Z,59.00
2018-09-18T03:47:13.604Z,59.20
2018-09-18T03:49:41.529Z,59.20
2018-09-18T03:52:09.517Z,59.20
2018-09-18T03:54:37.631Z,59.20
2018-09-18T03:57:05.560Z,59.20
2018-09-18T03:59:33.487Z,59.30
2018-09-18T04:02:01.438Z,59.40
2018-09-18T04:04:29.358Z,59.30
2018-09-18T04:06:57.309Z,59.40
2018-09-18T04:09:25.241Z,59.30
2018-09-18T04:11:53.170Z,59.30
2018-09-18T04:14:21.111Z,59.30
2018-09-18T04:16:49.179Z,59.30
2018-09-18T04:19:17.099Z,59.40
2018-09-18T04:21:45.041Z,59.30
2018-09-18T04:24:12.957Z,59.30
2018-09-18T04:26:41.564Z,59.30
2018-09-18T04:29:10.112Z,59.40
2018-09-18T04:31:39.547Z,59.40
2018-09-18T04:34:07.536Z,59.40
2018-09-18T04:36:35.559Z,59.40
2018-09-18T04:39:04.510Z,59.40
2018-09-18T04:41:32.439Z,59.60
2018-09-18T04:44:00.440Z,59.50
2018-09-18T04:46:28.371Z,59.50
2018-09-18T04:48:56.315Z,59.50
2018-09-18T04:51:24.251Z,59.60
2018-09-18T04:53:52.209Z,59.60
2018-09-18T04:56:20.140Z,59.60
2018-09-18T04:58:48.071Z,59.70
2018-09-18T05:01:16.015Z,59.80
2018-09-18T05:03:43.967Z,59.80
2018-09-18T05:06:12.167Z,59.80
2018-09-18T05:08:40.094Z,60.10
2018-09-18T05:11:08.023Z,60.20
2018-09-18T05:13:35.996Z,60.00
2018-09-18T05:16:03.919Z,60.10
2018-09-18T05:18:31.847Z,60.20
2018-09-18T05:20:59.839Z,60.30
2018-09-18T05:23:27.763Z,60.20
2018-09-18T05:25:55.689Z,60.20
2018-09-18T05:28:23.775Z,60.10
2018-09-18T05:30:51.716Z,60.20
2018-09-18T05:33:19.659Z,60.30
2018-09-18T05:35:47.662Z,60.30
2018-09-18T05:38:15.701Z,60.30
2018-09-18T05:40:43.666Z,60.30
2018-09-18T05:43:11.791Z,60.30
2018-09-18T05:45:46.840Z,60.30
2018-09-18T05:48:14.840Z,60.30
2018-09-18T05:50:43.078Z,60.30
2018-09-18T05:53:11.607Z,60.30
2018-09-18T05:55:39.585Z,60.30
2018-09-18T05:58:07.673Z,60.30
2018-09-18T06:00:35.608Z,60.20
2018-09-18T06:03:03.968Z,60.30
2018-09-18T06:05:32.064Z,60.30
2018-09-18T06:08:00.021Z,60.30
2018-09-18T06:10:27.969Z,60.30
2018-09-18T06:12:55.943Z,60.30
2018-09-18T06:15:23.901Z,60.20
2018-09-18T06:20:25.047Z,60.20
2018-09-18T06:22:53.047Z,60.20
2018-09-18T06:25:21.763Z,60.20
2018-09-18T06:27:50.522Z,60.20
2018-09-18T06:30:18.508Z,60.30
2018-09-18T06:32:46.547Z,60.30
2018-09-18T06:35:14.833Z,60.30
2018-09-18T06:37:42.768Z,60.30
2018-09-18T06:40:10.687Z,60.30
2018-09-18T06:42:38.670Z,60.30
2018-09-18T06:45:06.781Z,60.30
2018-09-18T06:47:34.703Z,60.30
2018-09-18T06:50:02.666Z,60.20
2018-09-18T06:52:30.643Z,61.00
2018-09-18T06:54:58.662Z,60.20
2018-09-18T06:57:26.614Z,60.20
2018-09-18T06:59:54.615Z,60.20
2018-09-18T07:02:22.523Z,60.20
2018-09-18T07:04:50.459Z,60.20
2018-09-18T07:07:18.424Z,60.20
2018-09-18T07:09:46.373Z,60.20
2018-09-18T07:12:14.320Z,60.10
2018-09-18T07:14:42.270Z,60.20
2018-09-18T07:17:10.210Z,60.10
2018-09-18T07:19:38.625Z,60.20
2018-09-18T07:22:06.587Z,60.20
2018-09-18T07:24:34.604Z,60.20
2018-09-18T07:27:02.546Z,60.20
2018-09-18T07:29:30.714Z,61.10
2018-09-18T07:31:58.593Z,60.40
2018-09-18T07:34:26.558Z,60.60
2018-09-18T07:36:54.516Z,60.40
2018-09-18T07:39:22.447Z,60.40
2018-09-18T07:41:50.375Z,60.40
2018-09-18T07:44:18.561Z,60.30
2018-09-18T07:46:46.530Z,60.30
2018-09-18T07:49:14.460Z,60.40
2018-09-18T07:51:42.410Z,60.40
2018-09-18T07:54:10.353Z,60.30
2018-09-18T07:56:38.278Z,60.30
2018-09-18T07:59:06.246Z,60.40
2018-09-18T08:01:34.218Z,60.30
2018-09-18T08:04:02.144Z,60.30
2018-09-18T08:06:30.096Z,60.30
2018-09-18T08:08:58.042Z,59.70
2018-09-18T08:11:26.001Z,60.30
2018-09-18T08:13:53.926Z,60.30
2018-09-18T08:16:21.887Z,60.40
2018-09-18T08:18:49.879Z,60.40
2018-09-18T08:21:17.789Z,60.40
2018-09-18T08:23:45.746Z,60.40
2018-09-18T08:26:13.693Z,60.40
2018-09-18T08:28:41.640Z,60.40
2018-09-18T08:31:09.576Z,60.40
2018-09-18T08:33:37.768Z,60.60
2018-09-18T08:36:05.785Z,60.40
2018-09-18T08:38:33.724Z,60.40
2018-09-18T08:41:01.689Z,60.60
2018-09-18T08:43:29.637Z,60.50
2018-09-18T08:45:57.559Z,60.40
2018-09-18T08:48:30.366Z,60.40
2018-09-18T08:50:59.517Z,60.50
2018-09-18T08:53:27.645Z,60.50
2018-09-18T08:55:55.615Z,60.40
2018-09-18T08:58:23.794Z,60.50
2018-09-18T09:00:51.830Z,60.40
2018-09-18T09:03:19.773Z,60.50
2018-09-18T09:05:47.719Z,60.40
2018-09-18T09:08:15.772Z,60.30
2018-09-18T09:10:43.697Z,60.30
2018-09-18T09:13:11.765Z,60.50
2018-09-18T09:15:39.807Z,60.50
2018-09-18T09:18:07.758Z,60.60
2018-09-18T09:20:35.728Z,60.60
2018-09-18T09:23:03.686Z,60.60
2018-09-18T09:25:31.805Z,60.50
2018-09-18T09:27:59.857Z,60.40
2018-09-18T09:30:27.751Z,60.40
2018-09-18T09:32:55.844Z,60.40
2018-09-18T09:35:23.790Z,60.60
2018-09-18T09:37:51.731Z,60.50
2018-09-18T09:40:19.667Z,60.60
2018-09-18T09:42:47.586Z,60.50
2018-09-18T09:45:15.724Z,60.70
2018-09-18T09:47:43.657Z,60.80
2018-09-18T09:50:11.603Z,60.60
2018-09-18T09:52:39.553Z,60.60
2018-09-18T09:55:07.474Z,60.40
2018-09-18T09:57:35.462Z,60.30
2018-09-18T10:00:03.499Z,60.20
2018-09-18T10:02:35.735Z,60.00
2018-09-18T10:05:03.953Z,60.00
2018-09-18T10:07:32.159Z,60.00
2018-09-18T10:10:00.096Z,59.90
2018-09-18T10:12:28.022Z,59.90
2018-09-18T10:14:55.966Z,59.80
2018-09-18T10:17:23.897Z,59.80
2018-09-18T10:19:51.839Z,59.60
2018-09-18T10:22:19.804Z,59.50
2018-09-18T10:24:47.767Z,59.40
2018-09-18T10:27:15.993Z,59.40
2018-09-18T10:29:43.940Z,59.50
2018-09-18T10:32:11.889Z,59.40
2018-09-18T10:34:39.831Z,59.30
2018-09-18T10:37:07.770Z,59.20
2018-09-18T10:39:35.708Z,59.00
2018-09-18T10:42:03.915Z,58.80
2018-09-18T10:44:31.721Z,58.80
2018-09-18T10:46:59.679Z,58.60
2018-09-18T10:49:28.124Z,58.40
2018-09-18T10:51:56.135Z,58.20
2018-09-18T10:54:24.065Z,58.10
2018-09-18T10:56:52.023Z,57.70
2018-09-18T10:59:19.950Z,57.60
2018-09-18T11:01:47.869Z,57.50
2018-09-18T11:04:15.845Z,57.20
2018-09-18T11:06:43.748Z,56.90
2018-09-18T11:09:11.899Z,56.50
2018-09-18T11:11:40.772Z,55.50
2018-09-18T11:14:09.030Z,55.30
2018-09-18T11:16:37.051Z,54.80
2018-09-18T11:19:05.166Z,54.20
2018-09-18T11:21:33.182Z,53.40
2018-09-18T11:24:01.015Z,52.50
2018-09-18T11:26:28.958Z,52.80
2018-09-18T11:28:56.882Z,52.70
2018-09-18T11:31:24.905Z,52.60
2018-09-18T11:33:52.853Z,51.40
2018-09-18T11:36:20.738Z,50.90
2018-09-18T11:38:48.719Z,50.90
2018-09-18T11:41:16.736Z,50.50
2018-09-18T11:43:48.169Z,50.60
2018-09-18T11:46:16.103Z,50.40
2018-09-18T11:48:44.076Z,50.10
2018-09-18T11:51:12.008Z,48.90
2018-09-18T11:53:39.963Z,48.80
2018-09-18T11:56:07.984Z,48.50
2018-09-18T11:58:35.941Z,48.20
2018-09-18T12:01:03.896Z,48.40
2018-09-18T12:03:31.830Z,48.40
2018-09-18T12:05:59.779Z,48.50
2018-09-18T12:08:27.727Z,47.20
2018-09-18T12:10:55.685Z,46.40
2018-09-18T12:13:23.675Z,46.60
2018-09-18T12:15:51.627Z,46.70
2018-09-18T12:18:19.582Z,47.30
2018-09-18T12:20:47.512Z,47.60
2018-09-18T12:23:15.487Z,47.30
2018-09-18T12:25:43.450Z,46.90
2018-09-18T12:28:11.500Z,46.80
2018-09-18T12:30:39.419Z,46.80
2018-09-18T12:33:07.473Z,46.70
2018-09-18T12:35:36.204Z,46.60
2018-09-18T12:38:04.210Z,46.20
2018-09-18T12:40:32.154Z,46.10
2018-09-18T12:43:00.078Z,45.70
2018-09-18T12:45:28.023Z,45.60
2018-09-18T12:47:55.965Z,45.60
2018-09-18T12:50:24.156Z,45.30
2018-09-18T12:52:51.855Z,45.70
2018-09-18T12:55:19.810Z,45.00
2018-09-18T12:57:47.767Z,45.30
2018-09-18T13:00:15.777Z,44.80
2018-09-18T13:02:43.628Z,43.80
2018-09-18T13:05:11.846Z,44.00
2018-09-18T13:07:39.782Z,44.40
2018-09-18T13:10:07.975Z,44.70
2018-09-18T13:12:35.825Z,44.60
2018-09-18T13:15:03.857Z,44.40
2018-09-18T13:17:31.874Z,43.40
2018-09-18T13:19:59.818Z,43.40
2018-09-18T13:22:27.712Z,43.30
2018-09-18T13:24:55.650Z,43.10
2018-09-18T13:27:23.591Z,43.20
2018-09-18T13:29:51.551Z,42.70
2018-09-18T13:32:19.548Z,43.20
2018-09-18T13:34:47.468Z,43.50
2018-09-18T13:37:15.430Z,43.90
2018-09-18T13:39:43.385Z,44.30
2018-09-18T13:42:11.348Z,44.40
2018-09-18T13:44:39.310Z,44.60
2018-09-18T13:47:07.394Z,44.30
2018-09-18T13:49:35.358Z,44.50
2018-09-18T13:52:03.387Z,44.40
2018-09-18T13:54:31.247Z,44.00
2018-09-18T13:56:59.196Z,43.50
2018-09-18T13:59:27.156Z,43.60
2018-09-18T14:01:55.096Z,43.60
2018-09-18T14:04:23.118Z,42.90
2018-09-18T14:06:50.997Z,42.70
2018-09-18T14:09:18.958Z,42.60
2018-09-18T14:11:57.087Z,42.50
2018-09-18T14:14:25.083Z,42.50
2018-09-18T14:16:53.001Z,42.80
2018-09-18T14:19:20.941Z,43.00
2018-09-18T14:21:48.895Z,42.80
2018-09-18T14:24:16.848Z,42.70
2018-09-18T14:26:44.827Z,42.80
2018-09-18T14:29:12.767Z,42.50
2018-09-18T14:31:40.715Z,42.20
2018-09-18T14:34:08.646Z,42.30
2018-09-18T14:36:36.621Z,41.90
2018-09-18T14:39:07.271Z,42.00
2018-09-18T14:41:35.353Z,41.80
2018-09-18T14:44:03.309Z,42.00
2018-09-18T14:46:31.257Z,42.10
2018-09-18T14:48:59.204Z,41.90
2018-09-18T14:51:27.292Z,41.50
2018-09-18T14:53:55.283Z,41.90
2018-09-18T14:56:23.214Z,41.90
2018-09-18T14:58:51.158Z,42.00
2018-09-18T15:01:25.775Z,42.00
2018-09-18T15:03:53.727Z,42.10
2018-09-18T15:06:28.271Z,42.00
2018-09-18T15:08:56.224Z,41.90
2018-09-18T15:11:24.174Z,41.80
2018-09-18T15:13:52.099Z,41.80
2018-09-18T15:16:20.010Z,41.70
2018-09-18T15:18:48.239Z,41.50
2018-09-18T15:21:16.176Z,41.40
2018-09-18T15:23:44.110Z,41.60
2018-09-18T15:26:12.073Z,41.30
2018-09-18T15:28:40.006Z,41.00
2018-09-18T15:31:07.960Z,41.20
2018-09-18T15:33:35.965Z,41.00
2018-09-18T15:36:03.836Z,40.70
2018-09-18T15:38:31.815Z,40.80
2018-09-18T15:40:59.780Z,40.50
2018-09-18T15:43:27.769Z,39.90
2018-09-18T15:45:55.768Z,40.60
2018-09-18T15:48:23.717Z,39.40
2018-09-18T15:50:51.640Z,39.60
2018-09-18T15:53:19.597Z,39.30
2018-09-18T15:55:47.535Z,39.40
2018-09-18T15:58:15.492Z,39.30
2018-09-18T16:00:43.699Z,39.30
2018-09-18T16:03:11.599Z,39.10
2018-09-18T16:05:39.950Z,38.70
2018-09-18T16:08:07.877Z,38.90
2018-09-18T16:10:35.835Z,39.00
2018-09-18T16:13:03.787Z,38.90
2018-09-18T16:17:59.713Z,38.70
2018-09-18T16:20:27.684Z,38.50
2018-09-18T16:22:55.643Z,38.70
2018-09-18T16:25:23.573Z,38.80
2018-09-18T16:27:51.514Z,38.80
2018-09-18T16:30:19.474Z,38.70
2018-09-18T16:32:47.415Z,38.70
2018-09-18T16:35:15.361Z,38.70
2018-09-18T16:37:43.308Z,38.80
2018-09-18T16:40:11.323Z,38.80
2018-09-18T16:42:39.553Z,38.80
2018-09-18T16:45:07.414Z,38.80
2018-09-18T16:47:35.361Z,39.00
2018-09-18T16:50:03.347Z,39.10
2018-09-18T16:52:31.482Z,39.20
2018-09-18T16:54:59.560Z,39.90
2018-09-18T16:57:27.490Z,39.40
2018-09-18T16:59:55.428Z,39.50
2018-09-18T17:02:23.508Z,39.60
2018-09-18T17:04:51.332Z,39.70
2018-09-18T17:07:22.442Z,39.70
2018-09-18T17:09:50.398Z,39.90
2018-09-18T17:12:18.611Z,39.90
2018-09-18T17:14:46.547Z,39.90
2018-09-18T17:17:14.531Z,40.10
2018-09-18T17:19:42.555Z,40.50
2018-09-18T17:22:10.410Z,40.70
2018-09-18T17:24:38.419Z,40.90
2018-09-18T17:27:06.303Z,41.00
2018-09-18T17:29:40.600Z,41.20
2018-09-18T17:32:08.639Z,41.30
2018-09-18T17:34:36.556Z,41.60
2018-09-18T17:37:05.085Z,41.80
2018-09-18T17:39:33.034Z,42.00
2018-09-18T17:42:00.993Z,42.10
2018-09-18T17:44:31.883Z,42.30
2018-09-18T17:46:59.834Z,42.40
2018-09-18T17:49:27.777Z,42.60
2018-09-18T17:51:58.991Z,42.70
2018-09-18T17:54:26.985Z,42.80
2018-09-18T17:56:55.154Z,42.90
2018-09-18T17:59:26.344Z,43.10
2018-09-18T18:01:54.234Z,43.20
2018-09-18T18:04:22.211Z,43.40
2018-09-18T18:06:50.156Z,43.50
2018-09-18T18:09:18.080Z,43.60
2018-09-18T18:11:46.060Z,43.70
2018-09-18T18:14:14.005Z,43.90
2018-09-18T18:16:41.947Z,44.20
2018-09-18T18:19:09.892Z,44.30
2018-09-18T18:21:37.819Z,44.50
2018-09-18T18:24:05.896Z,44.60
2018-09-18T18:26:34.001Z,44.80
2018-09-18T18:29:01.794Z,44.90
2018-09-18T18:31:29.735Z,45.00
2018-09-18T18:33:57.684Z,45.10
2018-09-18T18:36:25.615Z,45.20
2018-09-18T18:38:53.572Z,45.30
2018-09-18T18:41:21.488Z,46.10
2018-09-18T18:43:49.453Z,45.50
2018-09-18T18:46:17.372Z,45.60
2018-09-18T18:48:45.294Z,45.70
2018-09-18T18:51:13.255Z,45.80
2018-09-18T18:53:41.195Z,45.90
2018-09-18T18:56:09.185Z,45.90
2018-09-18T18:58:37.311Z,46.00
2018-09-18T19:01:05.311Z,46.10
2018-09-18T19:03:33.247Z,46.20
2018-09-18T19:06:01.208Z,46.30
2018-09-18T19:08:29.162Z,46.40
2018-09-18T19:11:00.827Z,46.50
2018-09-18T19:13:28.753Z,46.60
2018-09-18T19:16:00.517Z,46.60
2018-09-18T19:18:28.498Z,46.80
2018-09-18T19:20:56.443Z,46.90
2018-09-18T19:23:24.473Z,46.90
2018-09-18T19:25:52.472Z,47.00
2018-09-18T19:28:20.349Z,47.10
2018-09-18T19:30:51.099Z,47.30
2018-09-18T19:33:19.250Z,47.50
2018-09-18T19:35:46.976Z,47.50
2018-09-18T19:38:14.918Z,47.60
2018-09-18T19:40:42.880Z,47.70
2018-09-18T19:43:10.892Z,47.80
2018-09-18T19:45:38.751Z,48.00
2018-09-18T19:48:06.826Z,48.10
2018-09-18T19:50:34.814Z,48.10
2018-09-18T19:53:02.696Z,48.20
2018-09-18T19:55:32.410Z,48.30
2018-09-18T19:58:00.337Z,48.30
2018-09-18T20:00:28.260Z,48.40
2018-09-18T20:02:56.198Z,48.50
2018-09-18T20:05:24.124Z,48.50
2018-09-18T20:07:52.053Z,48.60
2018-09-18T20:10:20.015Z,49.40
2018-09-18T20:12:48.013Z,48.80
2018-09-18T20:15:15.911Z,48.90
2018-09-18T20:17:44.133Z,49.00
2018-09-18T20:20:12.069Z,49.00
2018-09-18T20:22:40.043Z,49.20
2018-09-18T20:25:07.956Z,49.30
2018-09-18T20:27:35.901Z,49.40
2018-09-18T20:30:03.827Z,49.40
2018-09-18T20:32:31.758Z,49.50
2018-09-18T20:34:59.693Z,49.60
2018-09-18T20:37:27.667Z,49.60
2018-09-18T20:39:55.607Z,49.70
2018-09-18T20:42:23.551Z,49.60
2018-09-18T20:44:51.508Z,49.70
2018-09-18T20:47:19.429Z,49.80
2018-09-18T20:49:47.397Z,49.70
2018-09-18T20:52:15.362Z,49.70
2018-09-18T20:54:43.301Z,49.70
2018-09-18T20:57:11.286Z,49.70
2018-09-18T20:59:39.246Z,49.70
2018-09-18T21:02:07.221Z,49.70
2018-09-18T21:04:35.153Z,49.70
2018-09-18T21:07:03.092Z,49.60
2018-09-18T21:09:31.044Z,49.60
2018-09-18T21:11:58.981Z,49.70
2018-09-18T21:14:26.915Z,49.70
2018-09-18T21:16:54.962Z,49.70
2018-09-18T21:19:22.909Z,49.70
2018-09-18T21:21:50.898Z,49.70
2018-09-18T21:24:18.825Z,49.60
2018-09-18T21:26:46.825Z,49.70
2018-09-18T21:29:14.758Z,49.70
2018-09-18T21:31:42.982Z,49.70
2018-09-18T21:34:10.901Z,49.70
2018-09-18T21:36:38.827Z,49.70
2018-09-18T21:39:07.976Z,49.70
2018-09-18T21:41:35.906Z,49.70
2018-09-18T21:44:03.885Z,49.70
2018-09-18T21:46:31.814Z,49.80
2018-09-18T21:48:59.758Z,49.80
2018-09-18T21:51:27.718Z,49.80
2018-09-18T21:53:55.631Z,49.80
2018-09-18T21:56:23.551Z,49.80
2018-09-18T21:58:51.930Z,49.80
2018-09-18T22:01:19.934Z,49.80
2018-09-18T22:03:47.813Z,49.90
2018-09-18T22:06:16.011Z,49.90
2018-09-18T22:08:43.950Z,49.90
2018-09-18T22:11:11.877Z,50.00
2018-09-18T22:13:39.818Z,50.00
2018-09-18T22:16:07.738Z,50.10
2018-09-18T22:18:39.467Z,50.90
2018-09-18T22:21:07.390Z,50.10
2018-09-18T22:23:35.351Z,50.10
2018-09-18T22:26:03.272Z,50.20
2018-09-18T22:28:31.203Z,50.30
2018-09-18T22:30:59.656Z,50.30
2018-09-18T22:33:27.580Z,50.40
2018-09-18T22:35:55.508Z,50.30
2018-09-18T22:38:23.458Z,50.30
2018-09-18T22:40:51.385Z,50.30
2018-09-18T22:43:19.330Z,50.40
2018-09-18T22:45:47.369Z,50.40
2018-09-18T22:48:15.300Z,50.40
2018-09-18T22:50:43.244Z,50.40
2018-09-18T22:53:11.214Z,50.50
2018-09-18T22:55:39.145Z,50.60
2018-09-18T22:58:07.104Z,50.60
2018-09-18T23:00:35.035Z,50.70
2018-09-18T23:03:02.954Z,50.70
2018-09-18T23:05:30.917Z,50.70
2018-09-18T23:07:58.866Z,50.80
2018-09-18T23:10:26.793Z,50.90
2018-09-18T23:12:54.711Z,50.90
2018-09-18T23:15:22.667Z,51.00
2018-09-18T23:17:50.588Z,51.20
2018-09-18T23:20:18.523Z,51.50
2018-09-18T23:22:46.466Z,51.80
2018-09-18T23:25:14.683Z,52.10
2018-09-18T23:27:42.633Z,52.50
2018-09-18T23:30:10.607Z,52.60
2018-09-18T23:32:38.516Z,52.60
2018-09-18T23:35:09.590Z,52.50
2018-09-18T23:37:37.534Z,53.20
2018-09-18T23:40:05.683Z,52.50
2018-09-18T23:42:33.621Z,52.30
2018-09-18T23:45:01.700Z,52.30
2018-09-18T23:47:29.686Z,52.30
2018-09-18T23:49:57.656Z,52.30
2018-09-18T23:52:25.889Z,52.20
2018-09-18T23:54:53.810Z,52.20
2018-09-18T23:57:21.770Z,52.20
2018-09-18T23:59:49.708Z,52.10
